Time;durP1;ratioP1;P1;durP2;ratioP2;P2;SDS_P1;SDS_P2;PMS_P1;PMS_P2;Temp;Humidity;BMP_temperature;BMP_pressure;BME280_temperature;BME280_humidity;BME280_pressure;Samples;Min_cycle;Max_cycle;Signal;HPM_P1;HPM_P2
2021/08/19 00:00:44;;;;;;;1999.90;999.90;;;18.20;99.90;;;;;;5021124;28;20745;-79
2021/08/19 00:03:10;;;;;;;1999.90;999.90;;;18.10;99.90;;;;;;5055519;28;20183;-79
2021/08/19 00:05:35;;;;;;;1999.90;999.90;;;18.20;99.90;;;;;;5056429;28;20172;-79
2021/08/19 00:08:01;;;;;;;1999.90;999.90;;;18.20;99.90;;;;;;5055461;28;20667;-79
2021/08/19 00:10:27;;;;;;;1999.90;999.90;;;18.20;99.90;;;;;;5056195;28;20160;-79
2021/08/19 00:12:52;;;;;;;1999.90;999.90;;;18.20;99.90;;;;;;5058860;28;20528;-79
2021/08/19 00:15:18;;;;;;;1999.90;999.90;;;18.20;99.90;;;;;;5041264;28;20171;-79
2021/08/19 00:17:44;;;;;;;1999.90;999.90;;;18.20;99.90;;;;;;5059095;28;20517;-79
2021/08/19 00:20:10;;;;;;;1999.90;999.90;;;18.20;99.90;;;;;;5059087;28;20167;-79
2021/08/19 00:22:36;;;;;;;1999.90;999.90;;;18.20;99.90;;;;;;5059023;28;20165;-79
2021/08/19 00:25:04;;;;;;;1999.90;999.90;;;18.20;99.90;;;;;;5059109;28;20395;-79
2021/08/19 00:27:30;;;;;;;1999.90;999.90;;;18.20;99.90;;;;;;5058519;28;20512;-79
2021/08/19 00:29:55;;;;;;;1999.90;999.90;;;18.20;99.90;;;;;;5058998;28;20514;-79
2021/08/19 00:32:21;;;;;;;1999.90;999.90;;;18.10;99.90;;;;;;5059115;28;20161;-79
2021/08/19 00:34:47;;;;;;;1999.90;999.90;;;18.00;99.90;;;;;;5059292;28;20161;-79
2021/08/19 00:37:12;;;;;;;1999.90;999.90;;;18.00;99.90;;;;;;5058895;28;20177;-79
2021/08/19 00:39:38;;;;;;;1999.90;999.90;;;18.10;99.90;;;;;;5040628;28;20640;-79
2021/08/19 00:42:06;;;;;;;1999.90;999.90;;;18.10;99.90;;;;;;5040021;28;20180;-79
2021/08/19 00:44:32;;;;;;;1999.90;999.90;;;18.10;99.90;;;;;;5057672;28;20411;-79
2021/08/19 00:46:58;;;;;;;1999.90;999.90;;;18.10;99.90;;;;;;5057527;28;20426;-79
2021/08/19 00:49:24;;;;;;;1999.90;999.90;;;18.20;99.90;;;;;;5057290;28;20779;-79
2021/08/19 00:51:52;;;;;;;1999.90;999.90;;;18.20;99.90;;;;;;5057882;28;20157;-79
2021/08/19 00:54:22;;;;;;;1999.90;999.90;;;18.20;99.90;;;;;;5057069;28;20207;-79
2021/08/19 00:57:02;;;;;;;1999.90;999.90;;;18.20;99.90;;;;;;5057183;28;20465;-79
2021/08/19 00:59:28;;;;;;;1999.90;999.90;;;18.20;99.90;;;;;;5039287;28;20399;-79
2021/08/19 01:02:08;;;;;;;1999.90;999.90;;;18.20;99.90;;;;;;5057254;28;20778;-79
2021/08/19 01:04:38;;;;;;;1999.90;999.90;;;18.10;99.90;;;;;;5057214;28;20398;-79
2021/08/19 01:07:11;;;;;;;1999.90;999.90;;;18.20;99.90;;;;;;5039463;28;20430;-78
2021/08/19 01:09:38;;;;;;;1999.90;999.90;;;18.30;99.90;;;;;;5057409;28;20438;-79
2021/08/19 01:12:09;;;;;;;1999.90;999.90;;;18.30;99.90;;;;;;5039150;28;20399;-79
2021/08/19 01:14:35;;;;;;;1999.90;999.90;;;18.20;99.90;;;;;;5057178;28;20878;-79
2021/08/19 01:17:08;;;;;;;1999.90;999.90;;;18.20;99.90;;;;;;5057178;28;20551;-79
2021/08/19 01:19:35;;;;;;;1999.90;999.90;;;18.20;99.90;;;;;;5038912;28;20415;-79
2021/08/19 01:22:01;;;;;;;1999.90;999.90;;;18.20;99.90;;;;;;5057015;28;20422;-78
2021/08/19 01:24:26;;;;;;;1999.90;999.90;;;18.20;99.90;;;;;;5057769;28;20412;-79
2021/08/19 01:26:53;;;;;;;1999.90;999.90;;;18.30;99.90;;;;;;5039606;28;20192;-79
2021/08/19 01:29:19;;;;;;;1999.90;999.90;;;18.30;99.90;;;;;;5057751;28;20702;-79
2021/08/19 01:32:05;;;;;;;1999.90;999.90;;;18.30;99.90;;;;;;5039273;28;20415;-79
2021/08/19 01:34:31;;;;;;;1999.90;999.90;;;18.30;99.90;;;;;;5057866;28;20275;-79
2021/08/19 01:36:58;;;;;;;1999.90;999.90;;;18.20;99.90;;;;;;5057601;28;20420;-79
2021/08/19 01:39:24;;;;;;;1999.90;999.90;;;18.20;99.90;;;;;;5057621;28;20406;-79
2021/08/19 01:41:50;;;;;;;1999.90;999.90;;;18.20;99.90;;;;;;5038847;28;20503;-79
2021/08/19 01:44:17;;;;;;;1999.90;999.90;;;18.30;99.90;;;;;;5057456;28;20910;-79
2021/08/19 01:46:43;;;;;;;1999.90;999.90;;;18.20;99.90;;;;;;5057244;28;20946;-79
2021/08/19 01:49:08;;;;;;;1999.90;999.90;;;18.20;99.90;;;;;;5056753;28;20438;-79
2021/08/19 01:51:34;;;;;;;1999.90;999.90;;;18.20;99.90;;;;;;5057149;28;20170;-79
2021/08/19 01:54:01;;;;;;;1999.90;999.90;;;18.10;99.90;;;;;;5056900;28;20552;-79
2021/08/19 01:56:27;;;;;;;1999.90;999.90;;;18.10;99.90;;;;;;5056888;28;20168;-79
2021/08/19 01:58:54;;;;;;;1999.90;999.90;;;18.10;99.90;;;;;;5057131;28;20399;-79
2021/08/19 02:01:21;;;;;;;1999.90;999.90;;;18.10;99.90;;;;;;5056938;28;20663;-79
2021/08/19 02:03:48;;;;;;;1999.90;999.90;;;18.00;99.90;;;;;;5057047;28;20421;-79
2021/08/19 02:06:14;;;;;;;1999.90;999.90;;;18.00;99.90;;;;;;5057333;28;20403;-79
2021/08/19 02:08:39;;;;;;;1999.90;999.90;;;18.10;99.90;;;;;;5056606;28;20446;-79
2021/08/19 02:11:05;;;;;;;1999.90;999.90;;;18.10;99.90;;;;;;5056217;28;20524;-79
2021/08/19 02:13:31;;;;;;;1999.90;999.90;;;18.20;99.90;;;;;;5038741;28;20163;-79
2021/08/19 02:15:58;;;;;;;1999.90;999.90;;;18.10;99.90;;;;;;5056732;28;20395;-79
2021/08/19 02:18:24;;;;;;;1999.90;999.90;;;18.10;99.90;;;;;;5056254;28;20248;-79
2021/08/19 02:20:49;;;;;;;1999.90;999.90;;;18.00;99.90;;;;;;5056473;28;20435;-79
2021/08/19 02:23:15;;;;;;;1999.90;999.90;;;18.10;99.90;;;;;;5056208;28;20165;-78
2021/08/19 02:25:41;;;;;;;1999.90;999.90;;;18.10;99.90;;;;;;5055987;28;20169;-78
2021/08/19 02:28:06;;;;;;;1999.90;999.90;;;18.10;99.90;;;;;;5056703;28;20198;-78
2021/08/19 02:30:32;;;;;;;1999.90;999.90;;;18.10;99.90;;;;;;5038002;28;20171;-78
2021/08/19 02:32:58;;;;;;;1999.90;999.90;;;18.10;99.90;;;;;;5056568;28;20165;-78
2021/08/19 02:35:25;;;;;;;1999.90;999.90;;;18.20;99.90;;;;;;5036972;28;20169;-79
2021/08/19 02:37:52;;;;;;;1999.90;999.90;;;18.20;99.90;;;;;;5038308;28;20814;-78
2021/08/19 02:40:18;;;;;;;1999.90;999.90;;;18.20;99.90;;;;;;5056630;28;20410;-78
2021/08/19 02:42:43;;;;;;;1999.90;999.90;;;18.20;99.90;;;;;;5056132;28;20411;-78
2021/08/19 02:45:09;;;;;;;1999.90;999.90;;;18.20;99.90;;;;;;5037961;28;20510;-78
2021/08/19 02:47:35;;;;;;;1999.90;999.90;;;18.20;99.90;;;;;;5055942;28;20559;-78
2021/08/19 02:50:01;;;;;;;1999.90;999.90;;;18.20;99.90;;;;;;5056420;28;20403;-78
2021/08/19 02:52:26;;;;;;;1999.90;999.90;;;18.10;99.90;;;;;;5055409;28;20255;-78
2021/08/19 02:54:52;;;;;;;1999.90;999.90;;;18.10;99.90;;;;;;5055272;28;20181;-78
2021/08/19 02:57:18;;;;;;;1999.90;999.90;;;18.10;99.90;;;;;;5037942;28;20198;-78
2021/08/19 02:59:44;;;;;;;1999.90;999.90;;;18.10;99.90;;;;;;5055806;28;20685;-78
2021/08/19 03:02:09;;;;;;;1999.90;999.90;;;18.10;99.90;;;;;;5037314;28;20415;-79
2021/08/19 03:04:35;;;;;;;1999.90;999.90;;;18.10;99.90;;;;;;5055698;28;20233;-78
2021/08/19 03:07:01;;;;;;;1999.90;999.90;;;18.10;99.90;;;;;;5037450;28;20196;-78
2021/08/19 03:09:27;;;;;;;1999.90;999.90;;;18.10;99.90;;;;;;5055950;28;20610;-79
2021/08/19 03:11:53;;;;;;;1999.90;999.90;;;18.20;99.90;;;;;;5055849;28;20497;-78
2021/08/19 03:14:19;;;;;;;1999.90;999.90;;;18.20;99.90;;;;;;5056079;28;20439;-78
2021/08/19 03:16:45;;;;;;;1999.90;999.90;;;18.20;99.90;;;;;;5056270;28;20253;-78
2021/08/19 03:19:10;;;;;;;1999.90;999.90;;;18.20;99.90;;;;;;5056195;28;20439;-78
2021/08/19 03:21:37;;;;;;;1999.90;999.90;;;18.10;99.90;;;;;;5056364;28;20198;-78
2021/08/19 03:24:04;;;;;;;1999.90;999.90;;;18.20;99.90;;;;;;5038652;28;20199;-78
2021/08/19 03:26:31;;;;;;;1999.90;999.90;;;18.20;99.90;;;;;;5038300;28;20439;-78
2021/08/19 03:28:58;;;;;;;1999.90;999.90;;;18.10;99.90;;;;;;5056502;28;20803;-78
2021/08/19 03:31:27;;;;;;;1999.90;999.90;;;18.10;99.90;;;;;;5056892;28;20406;-79
2021/08/19 03:33:53;;;;;;;1999.90;999.90;;;18.20;99.90;;;;;;5056566;28;20403;-79
2021/08/19 03:36:19;;;;;;;1999.90;999.90;;;18.10;99.90;;;;;;5056685;28;20492;-79
2021/08/19 03:38:45;;;;;;;1999.90;999.90;;;18.10;99.90;;;;;;5056899;28;20411;-79
2021/08/19 03:41:11;;;;;;;1999.90;999.90;;;18.10;99.90;;;;;;5056000;28;20173;-79
2021/08/19 03:43:38;;;;;;;1999.90;999.90;;;18.00;99.90;;;;;;5056734;28;20265;-79
2021/08/19 03:46:04;;;;;;;1999.90;999.90;;;18.00;99.90;;;;;;5058074;28;20414;-79
2021/08/19 03:48:29;;;;;;;1999.90;999.90;;;17.90;99.90;;;;;;5042871;28;20482;-79
2021/08/19 03:50:56;;;;;;;1999.90;999.90;;;18.00;99.90;;;;;;5060394;28;20395;-79
2021/08/19 03:53:22;;;;;;;1999.90;999.90;;;18.00;99.90;;;;;;5060189;28;20529;-79
2021/08/19 03:55:47;;;;;;;1999.90;999.90;;;18.10;99.90;;;;;;5060272;28;20394;-79
2021/08/19 03:58:13;;;;;;;1999.90;999.90;;;18.10;99.90;;;;;;5062085;28;20700;-79
2021/08/19 04:00:39;;;;;;;1999.90;999.90;;;18.10;99.90;;;;;;5041944;28;20271;-79
2021/08/19 04:03:04;;;;;;;1999.90;999.90;;;17.90;99.90;;;;;;5059358;28;20322;-78
2021/08/19 04:05:30;;;;;;;1999.90;999.90;;;17.90;99.90;;;;;;5059195;28;20165;-79
2021/08/19 04:07:56;;;;;;;1999.90;999.90;;;18.00;99.90;;;;;;5059454;28;20197;-78
2021/08/19 04:10:21;;;;;;;1999.90;999.90;;;18.00;99.90;;;;;;5059442;28;20161;-79
2021/08/19 04:12:47;;;;;;;1999.90;999.90;;;18.00;99.90;;;;;;5040920;28;20304;-78
2021/08/19 04:15:13;;;;;;;1999.90;999.90;;;18.00;99.90;;;;;;5059423;28;20165;-79
2021/08/19 04:17:39;;;;;;;1999.90;999.90;;;18.00;99.90;;;;;;5041541;28;20200;-79
2021/08/19 04:20:06;;;;;;;1999.90;999.90;;;18.00;99.90;;;;;;5058993;28;20399;-79
2021/08/19 04:22:32;;;;;;;1999.90;999.90;;;18.00;99.90;;;;;;5058974;28;20536;-79
2021/08/19 04:24:57;;;;;;;1999.90;999.90;;;17.90;99.90;;;;;;5059249;28;20410;-79
2021/08/19 04:27:23;;;;;;;1999.90;999.90;;;17.90;99.90;;;;;;5058624;28;20260;-79
2021/08/19 04:29:49;;;;;;;1999.90;999.90;;;18.00;99.90;;;;;;5058862;28;20188;-79
2021/08/19 04:32:15;;;;;;;1999.90;999.90;;;17.90;99.90;;;;;;5059042;28;20478;-79
2021/08/19 04:34:41;;;;;;;1999.90;999.90;;;18.00;99.90;;;;;;5041019;28;20758;-79
2021/08/19 04:37:07;;;;;;;1999.90;999.90;;;17.90;99.90;;;;;;5058482;28;20463;-79
2021/08/19 04:39:32;;;;;;;1999.90;999.90;;;18.00;99.90;;;;;;5059307;28;20164;-78
2021/08/19 04:41:58;;;;;;;1999.90;999.90;;;18.00;99.90;;;;;;5041089;28;20169;-78
2021/08/19 04:44:24;;;;;;;1999.90;999.90;;;18.00;99.90;;;;;;5058368;28;20200;-79
2021/08/19 04:46:50;;;;;;;1999.90;999.90;;;17.90;99.90;;;;;;5040860;28;20224;-78
2021/08/19 04:49:16;;;;;;;1999.90;999.90;;;18.00;99.90;;;;;;5058740;28;20193;-79
2021/08/19 04:51:41;;;;;;;1999.90;999.90;;;18.00;99.90;;;;;;5041014;28;20782;-79
2021/08/19 04:54:08;;;;;;;1999.90;999.90;;;18.00;99.90;;;;;;5058415;28;20427;-78
2021/08/19 04:56:37;;;;;;;1999.90;999.90;;;18.00;99.90;;;;;;5058813;28;20465;-79
2021/08/19 04:59:08;;;;;;;1999.90;999.90;;;18.00;99.90;;;;;;5057905;28;20413;-77
2021/08/19 05:01:33;;;;;;;1999.90;999.90;;;17.90;99.90;;;;;;5058947;28;20414;-79
2021/08/19 05:03:59;;;;;;;1999.90;999.90;;;17.90;99.90;;;;;;5058561;28;20475;-79
2021/08/19 05:06:32;;;;;;;1999.90;999.90;;;17.90;99.90;;;;;;5058275;28;20169;-79
2021/08/19 05:09:04;;;;;;;1999.90;999.90;;;17.90;99.90;;;;;;5058528;28;20926;-79
2021/08/19 05:11:30;;;;;;;1999.90;999.90;;;18.00;99.90;;;;;;5057980;28;20954;-78
2021/08/19 05:13:58;;;;;;;1999.90;999.90;;;18.00;99.90;;;;;;5058876;28;20430;-78
2021/08/19 05:16:27;;;;;;;1999.90;999.90;;;17.90;99.90;;;;;;5040476;28;20786;-79
2021/08/19 05:18:54;;;;;;;1999.90;999.90;;;18.00;99.90;;;;;;5058374;28;20411;-79
2021/08/19 05:21:20;;;;;;;1999.90;999.90;;;18.00;99.90;;;;;;5058292;28;20411;-79
2021/08/19 05:23:46;;;;;;;1999.90;999.90;;;18.00;99.90;;;;;;5040376;28;20957;-79
2021/08/19 05:26:12;;;;;;;1999.90;999.90;;;18.00;99.90;;;;;;5057813;28;20168;-79
2021/08/19 05:28:37;;;;;;;1999.90;999.90;;;18.00;99.90;;;;;;5041146;28;20455;-79
2021/08/19 05:31:03;;;;;;;1999.90;999.90;;;18.10;99.90;;;;;;5040470;28;20423;-79
2021/08/19 05:33:29;;;;;;;1999.90;999.90;;;18.10;99.90;;;;;;5057983;28;20536;-79
2021/08/19 05:35:55;;;;;;;1999.90;999.90;;;18.10;99.90;;;;;;5039954;28;20180;-79
2021/08/19 05:38:20;;;;;;;1999.90;999.90;;;18.10;99.90;;;;;;5040133;28;20439;-79
2021/08/19 05:40:46;;;;;;;1999.90;999.90;;;18.10;99.90;;;;;;5040228;28;20267;-79
2021/08/19 05:43:12;;;;;;;1999.90;999.90;;;18.10;99.90;;;;;;5058162;28;20177;-79
2021/08/19 05:45:37;;;;;;;1999.90;999.90;;;18.10;99.90;;;;;;5057624;28;20197;-79
2021/08/19 05:48:04;;;;;;;1999.90;999.90;;;18.10;99.90;;;;;;5057572;28;20192;-79
2021/08/19 05:50:33;;;;;;;1999.90;999.90;;;18.10;99.90;;;;;;5057691;28;20172;-79
2021/08/19 05:52:58;;;;;;;1999.90;999.90;;;18.20;99.90;;;;;;5039307;28;20423;-79
2021/08/19 05:55:34;;;;;;;1999.90;999.90;;;18.20;99.90;;;;;;5112648;22;21004;-78
2021/08/19 05:58:14;;;;;;;1999.90;999.90;;;18.20;99.90;;;;;;5057099;28;20199;-78
2021/08/19 06:00:57;;;;;;;1999.90;999.90;;;18.20;99.90;;;;;;5056616;28;20375;-79
2021/08/19 06:03:26;;;;;;;1999.90;999.90;;;18.20;99.90;;;;;;5039191;28;20395;-79
2021/08/19 06:06:05;;;;;;;1999.90;999.90;;;18.20;99.90;;;;;;5056844;28;20407;-78
2021/08/19 06:08:33;;;;;;;1999.90;999.90;;;18.20;99.90;;;;;;5056439;28;20533;-78
2021/08/19 06:11:01;;;;;;;1999.90;999.90;;;18.20;99.90;;;;;;5039622;28;20419;-79
2021/08/19 06:13:41;;;;;;;1999.90;999.90;;;18.30;99.90;;;;;;5056570;28;20396;-79
2021/08/19 06:16:10;;;;;;;1999.90;999.90;;;18.20;99.90;;;;;;5039364;28;20482;-79
2021/08/19 06:18:47;;;;;;;1999.90;999.90;;;18.30;99.90;;;;;;5038529;28;20419;-79
2021/08/19 06:21:24;;;;;;;1999.90;999.90;;;18.20;99.90;;;;;;5056619;28;20384;-79
2021/08/19 06:24:32;;;;;;;1999.90;999.90;;;18.20;99.90;;;;;;5056566;28;20411;-78
2021/08/19 06:27:08;;;;;;;1999.90;999.90;;;18.20;99.90;;;;;;5056927;28;20830;-79
2021/08/19 06:29:37;;;;;;;1999.90;999.90;;;18.20;99.90;;;;;;5056038;28;20446;-79
2021/08/19 06:32:26;;;;;;;1999.90;999.90;;;18.20;99.90;;;;;;5057736;28;20464;-78
2021/08/19 06:35:06;;;;;;;1999.90;999.90;;;18.20;99.90;;;;;;4992468;28;20410;-78
2021/08/19 06:37:41;;;;;;;1999.90;999.90;;;18.30;99.90;;;;;;5038377;28;20423;-78
2021/08/19 06:40:08;;;;;;;1999.90;999.90;;;18.40;99.90;;;;;;5039207;28;20527;-78
2021/08/19 06:42:47;;;;;;;1999.90;999.90;;;18.30;99.90;;;;;;5056268;28;20497;-78
2021/08/19 06:45:18;;;;;;;1999.90;999.90;;;18.20;99.90;;;;;;5056236;28;20471;-78
2021/08/19 06:47:44;;;;;;;1999.90;999.90;;;18.30;99.90;;;;;;5056796;28;20494;-78
2021/08/19 06:50:10;;;;;;;1999.90;999.90;;;18.30;99.90;;;;;;5039283;28;20816;-78
2021/08/19 06:52:54;;;;;;;1999.90;999.90;;;18.30;99.90;;;;;;5056262;28;20169;-79
2021/08/19 06:55:30;;;;;;;1999.90;999.90;;;18.40;99.90;;;;;;5056158;28;20418;-78
2021/08/19 06:58:13;;;;;;;1999.90;999.90;;;18.30;99.90;;;;;;5057211;28;20472;-78
2021/08/19 07:00:44;;;;;;;1999.90;999.90;;;18.30;99.90;;;;;;5038708;28;20473;-78
2021/08/19 07:03:16;;;;;;;1999.90;999.90;;;18.40;99.90;;;;;;5057014;28;20391;-79
2021/08/19 07:05:57;;;;;;;1999.90;999.90;;;18.30;99.90;;;;;;5057069;28;20407;-79
2021/08/19 07:08:23;;;;;;;1999.90;999.90;;;18.30;99.90;;;;;;5056500;28;20446;-78
2021/08/19 07:10:56;;;;;;;1999.90;999.90;;;18.20;99.90;;;;;;5056223;28;20431;-78
2021/08/19 07:13:31;;;;;;;1999.90;999.90;;;18.30;99.90;;;;;;5056692;28;20157;-79
2021/08/19 07:16:02;;;;;;;1999.90;999.90;;;18.40;99.90;;;;;;5037576;28;20414;-79
2021/08/19 07:18:30;;;;;;;1999.90;999.90;;;18.40;99.90;;;;;;5056196;28;20767;-78
2021/08/19 07:21:03;;;;;;;1999.90;999.90;;;18.40;99.90;;;;;;5057488;28;20414;-78
2021/08/19 07:23:32;;;;;;;1999.90;999.90;;;18.50;99.90;;;;;;5060409;28;20401;-79
2021/08/19 07:26:07;;;;;;;1999.90;999.90;;;18.60;99.90;;;;;;5059841;28;20418;-78
2021/08/19 07:28:45;;;;;;;1999.90;999.90;;;18.50;99.90;;;;;;5060355;28;20465;-79
2021/08/19 07:31:11;;;;;;;1999.90;999.90;;;18.50;99.90;;;;;;5060258;28;20387;-79
2021/08/19 07:33:39;;;;;;;1999.90;999.90;;;18.50;99.90;;;;;;5060247;28;20916;-79
2021/08/19 07:36:05;;;;;;;1999.90;999.90;;;18.50;99.90;;;;;;5060717;28;20169;-79
2021/08/19 07:38:33;;;;;;;1999.90;999.90;;;18.50;99.90;;;;;;5042532;28;20500;-79
2021/08/19 07:41:04;;;;;;;1999.90;999.90;;;18.50;99.90;;;;;;5060464;28;20417;-79
2021/08/19 07:43:38;;;;;;;1999.90;999.90;;;18.40;99.90;;;;;;5060665;28;20387;-78
2021/08/19 07:46:06;;;;;;;1999.90;999.90;;;18.40;99.90;;;;;;5060345;28;20415;-78
2021/08/19 07:48:39;;;;;;;1999.90;999.90;;;18.40;99.90;;;;;;5060241;28;20996;-79
2021/08/19 07:51:12;;;;;;;1999.90;999.90;;;18.50;99.90;;;;;;5060263;28;20470;-78
2021/08/19 07:53:47;;;;;;;1999.90;999.90;;;18.50;99.90;;;;;;5039741;28;20422;-78
2021/08/19 07:56:13;;;;;;;1999.90;999.90;;;18.60;99.90;;;;;;5042007;28;20468;-78
2021/08/19 07:58:38;;;;;;;1999.90;999.90;;;18.60;99.90;;;;;;5059401;28;20403;-78
2021/08/19 08:01:04;;;;;;;1999.90;999.90;;;18.60;99.90;;;;;;5058801;28;20913;-78
2021/08/19 08:03:30;;;;;;;1999.90;999.90;;;18.60;99.90;;;;;;5059210;28;20215;-78
2021/08/19 08:05:55;;;;;;;1999.90;999.90;;;18.60;99.90;;;;;;5041148;28;20164;-78
2021/08/19 08:08:21;;;;;;;1999.90;999.90;;;18.60;99.90;;;;;;5058859;28;20227;-78
2021/08/19 08:10:47;;;;;;;1999.90;999.90;;;18.70;99.90;;;;;;5040720;28;20328;-78
2021/08/19 08:13:13;;;;;;;1999.90;999.90;;;18.70;99.90;;;;;;5059541;28;20528;-78
2021/08/19 08:15:40;;;;;;;1999.90;999.90;;;18.90;99.90;;;;;;5041871;28;20215;-78
2021/08/19 08:18:06;;;;;;;1999.90;999.90;;;18.90;99.90;;;;;;5059588;28;20431;-78
2021/08/19 08:20:33;;;;;;;1999.90;999.90;;;18.90;99.90;;;;;;5060081;28;20447;-78
2021/08/19 08:22:59;;;;;;;1999.90;999.90;;;18.80;99.90;;;;;;5059005;28;20414;-78
2021/08/19 08:25:28;;;;;;;1999.90;999.90;;;18.80;99.90;;;;;;5059668;28;20403;-77
2021/08/19 08:28:03;;;;;;;1999.90;999.90;;;18.80;99.90;;;;;;5058248;28;20466;-78
2021/08/19 08:30:29;;;;;;;1999.90;999.90;;;18.90;99.90;;;;;;5058565;28;20387;-78
2021/08/19 08:32:55;;;;;;;1999.90;999.90;;;19.10;99.90;;;;;;5058552;28;20396;-78
2021/08/19 08:35:20;;;;;;;1999.90;999.90;;;19.20;99.90;;;;;;5058389;28;20165;-78
2021/08/19 08:37:46;;;;;;;1999.90;999.90;;;19.30;99.90;;;;;;5058075;28;20192;-78
2021/08/19 08:40:18;;;;;;;1999.90;999.90;;;19.40;99.90;;;;;;5058518;28;20646;-78
2021/08/19 08:42:45;;;;;;;1999.90;999.90;;;19.50;99.90;;;;;;5040655;28;20171;-78
2021/08/19 08:45:12;;;;;;;1999.90;999.90;;;19.60;99.90;;;;;;5041617;28;20419;-78
2021/08/19 08:47:39;;;;;;;1999.90;999.90;;;19.50;99.90;;;;;;5059443;28;20419;-78
2021/08/19 08:50:06;;;;;;;1999.90;999.90;;;19.70;99.90;;;;;;5059124;28;20526;-78
2021/08/19 08:52:34;;;;;;;1999.90;999.90;;;19.80;99.90;;;;;;5058683;28;20413;-78
2021/08/19 08:55:02;;;;;;;1999.90;999.90;;;19.80;99.90;;;;;;5058716;28;20486;-77
2021/08/19 08:57:28;;;;;;;1999.90;999.90;;;19.90;99.90;;;;;;5058907;28;20510;-78
2021/08/19 08:59:55;;;;;;;1999.90;999.90;;;19.90;99.90;;;;;;5040904;28;20949;-78
2021/08/19 09:02:20;;;;;;;1999.90;999.90;;;19.90;99.90;;;;;;5058675;28;20177;-78
2021/08/19 09:04:46;;;;;;;1999.90;999.90;;;20.10;99.90;;;;;;5059892;28;20413;-78
2021/08/19 09:07:12;;;;;;;1999.90;999.90;;;20.20;99.90;;;;;;5058892;28;20659;-78
2021/08/19 09:09:39;;;;;;;1999.90;999.90;;;20.30;99.90;;;;;;5058360;28;20196;-78
2021/08/19 09:12:06;;;;;;;1999.90;999.90;;;20.30;99.90;;;;;;5039436;28;20845;-79
2021/08/19 09:14:35;;;;;;;1999.90;999.90;;;20.20;99.90;;;;;;5040059;28;20419;-78
2021/08/19 09:17:04;;;;;;;1999.90;999.90;;;20.10;99.90;;;;;;5039812;28;20438;-78
2021/08/19 09:19:32;;;;;;;1999.90;999.90;;;20.00;99.90;;;;;;5059004;28;20422;-78
2021/08/19 09:22:04;;;;;;;1999.90;999.90;;;19.90;99.90;;;;;;5058342;28;20409;-78
2021/08/19 09:24:34;;;;;;;1999.90;999.90;;;19.80;99.90;;;;;;5039922;28;20437;-78
2021/08/19 09:27:11;;;;;;;1999.90;999.90;;;19.80;99.90;;;;;;5039254;28;20454;-78
2021/08/19 09:29:37;;;;;;;1999.90;999.90;;;19.70;99.90;;;;;;5057630;28;20451;-78
2021/08/19 09:32:17;;;;;;;1999.90;999.90;;;19.70;99.90;;;;;;5058026;28;20410;-78
2021/08/19 09:34:47;;;;;;;1999.90;999.90;;;19.70;99.90;;;;;;5057357;28;20164;-79
2021/08/19 09:37:19;;;;;;;1999.90;999.90;;;19.60;99.90;;;;;;5058365;28;20510;-78
2021/08/19 09:39:46;;;;;;;1999.90;999.90;;;19.60;99.90;;;;;;5041173;28;20487;-78
2021/08/19 09:42:12;;;;;;;1999.90;999.90;;;19.60;99.90;;;;;;5058399;28;20403;-78
2021/08/19 09:44:46;;;;;;;1999.90;999.90;;;19.70;99.90;;;;;;5057123;28;20838;-78
2021/08/19 09:47:34;;;;;;;1999.90;999.90;;;19.90;99.90;;;;;;5057075;28;20422;-78
2021/08/19 09:50:13;;;;;;;1999.90;999.90;;;19.90;99.90;;;;;;5057552;28;20446;-78
2021/08/19 09:52:40;;;;;;;1999.90;999.90;;;20.00;99.90;;;;;;5057991;28;20841;-78
2021/08/19 09:55:26;;;;;;;1999.90;999.90;;;20.00;99.90;;;;;;5040006;28;20510;-78
2021/08/19 09:57:53;;;;;;;1999.90;999.90;;;19.90;99.90;;;;;;5039520;28;20454;-79
2021/08/19 10:00:40;;;;;;;1999.90;999.90;;;20.00;99.90;;;;;;5056802;28;20448;-78
2021/08/19 10:03:05;;;;;;;1999.90;999.90;;;20.10;99.90;;;;;;5057778;28;20425;-78
2021/08/19 10:05:34;;;;;;;1999.90;999.90;;;20.10;99.90;;;;;;5039891;28;20868;-79
2021/08/19 10:08:00;;;;;;;1999.90;999.90;;;20.20;99.90;;;;;;5057252;28;20427;-78
2021/08/19 10:10:27;;;;;;;1999.90;999.90;;;20.30;99.90;;;;;;5057334;28;20906;-78
2021/08/19 10:12:57;;;;;;;1999.90;999.90;;;20.30;99.90;;;;;;5039595;28;20461;-78
2021/08/19 10:15:23;;;;;;;1999.90;999.90;;;20.50;99.90;;;;;;5057515;28;20411;-79
2021/08/19 10:17:55;;;;;;;1999.90;999.90;;;20.70;99.90;;;;;;5040884;28;20780;-78
2021/08/19 10:20:25;;;;;;;1999.90;999.90;;;20.90;99.90;;;;;;5058243;28;20418;-78
2021/08/19 10:22:54;;;;;;;1999.90;999.90;;;21.10;99.90;;;;;;5039829;28;20408;-78
2021/08/19 10:25:23;;;;;;;1999.90;999.90;;;21.30;99.90;;;;;;5039735;28;20469;-79
2021/08/19 10:28:22;;;;;;;1999.90;999.90;;;21.30;99.90;;;;;;5058200;28;20426;-78
2021/08/19 10:30:57;;;;;;;1999.90;999.90;;;21.30;99.90;;;;;;5039811;28;20424;-78
2021/08/19 10:33:35;;;;;;;1999.90;999.90;;;21.20;99.90;;;;;;5057980;28;20486;-78
2021/08/19 10:36:31;;;;;;;1999.90;999.90;;;21.00;99.90;;;;;;5057565;28;20433;-78
2021/08/19 10:39:18;;;;;;;1999.90;999.90;;;21.00;99.90;;;;;;5004898;28;20488;-78
2021/08/19 10:41:47;;;;;;;1999.90;999.90;;;21.10;99.90;;;;;;5057819;28;20407;-78
2021/08/19 10:44:14;;;;;;;1999.90;999.90;;;21.10;99.90;;;;;;5057214;28;20923;-78
2021/08/19 10:46:45;;;;;;;1999.90;999.90;;;21.10;99.90;;;;;;5057388;28;20420;-78
2021/08/19 10:49:31;;;;;;;1999.90;999.90;;;21.10;99.90;;;;;;5057190;28;20430;-78
2021/08/19 10:52:09;;;;;;;1999.90;999.90;;;21.10;99.90;;;;;;5057701;28;20408;-78
2021/08/19 10:54:47;;;;;;;1999.90;999.90;;;21.10;99.90;;;;;;5056820;28;20765;-78
2021/08/19 10:57:25;;;;;;;1999.90;999.90;;;21.00;99.90;;;;;;5039798;28;20435;-78
2021/08/19 11:00:05;;;;;;;1999.90;999.90;;;21.00;99.90;;;;;;5057929;28;20415;-78
2021/08/19 11:02:47;;;;;;;1999.90;999.90;;;21.00;99.90;;;;;;5058718;28;20379;-78
2021/08/19 11:05:28;;;;;;;1999.90;999.90;;;21.10;99.90;;;;;;5058004;28;20824;-78
2021/08/19 11:07:56;;;;;;;1999.90;999.90;;;21.10;99.90;;;;;;5057965;28;20485;-78
2021/08/19 11:10:26;;;;;;;1999.90;999.90;;;21.10;99.90;;;;;;5058289;28;20495;-78
2021/08/19 11:12:55;;;;;;;1999.90;999.90;;;21.10;99.90;;;;;;5039913;28;20821;-78
2021/08/19 11:15:21;;;;;;;1999.90;999.90;;;21.10;99.90;;;;;;5058024;28;20409;-78
2021/08/19 11:18:05;;;;;;;1999.90;999.90;;;21.30;99.90;;;;;;5057884;28;20910;-79
2021/08/19 11:20:34;;;;;;;1999.90;999.90;;;21.60;99.90;;;;;;5058024;28;20235;-78
2021/08/19 11:23:09;;;;;;;1999.90;999.90;;;21.70;99.90;;;;;;5058558;28;20406;-78
2021/08/19 11:25:40;;;;;;;1999.90;999.90;;;21.80;99.90;;;;;;5057315;28;20485;-79
2021/08/19 11:28:15;;;;;;;1999.90;999.90;;;21.60;99.90;;;;;;5039920;28;20428;-78
2021/08/19 11:30:50;;;;;;;1999.90;999.90;;;21.40;99.90;;;;;;5057550;28;20500;-78
2021/08/19 11:33:21;;;;;;;1999.90;999.90;;;21.20;99.90;;;;;;5039494;28;20410;-78
2021/08/19 11:35:49;;;;;;;1999.90;999.90;;;21.10;99.90;;;;;;5057276;28;20398;-78
2021/08/19 11:38:23;;;;;;;1999.90;999.90;;;20.80;99.90;;;;;;5057338;28;20421;-78
2021/08/19 11:40:54;;;;;;;1999.90;999.90;;;20.60;99.90;;;;;;5058105;28;20448;-78
2021/08/19 11:43:31;;;;;;;1999.90;999.90;;;20.40;99.90;;;;;;5039644;28;20407;-78
2021/08/19 11:46:07;;;;;;;1999.90;999.90;;;20.30;99.90;;;;;;5058251;28;20398;-78
2021/08/19 11:48:34;;;;;;;1999.90;999.90;;;20.40;99.90;;;;;;5039819;28;20449;-78
2021/08/19 11:51:02;;;;;;;1999.90;999.90;;;20.40;99.90;;;;;;5058106;28;20399;-78
2021/08/19 11:56:15;;;;;;;1999.90;999.90;;;20.80;99.90;;;;;;5034446;28;20478;-79
2021/08/19 11:58:41;;;;;;;1999.90;999.90;;;21.00;99.90;;;;;;4998848;28;20480;-79
2021/08/19 12:01:11;;;;;;;1999.90;999.90;;;21.20;99.90;;;;;;5016515;28;20884;-79
2021/08/19 12:03:41;;;;;;;1999.90;999.90;;;21.50;99.90;;;;;;5016971;28;20634;-79
2021/08/19 12:06:09;;;;;;;1999.90;999.90;;;21.80;99.90;;;;;;5016550;28;20520;-79
2021/08/19 12:08:38;;;;;;;1999.90;999.90;;;22.00;99.90;;;;;;5019852;28;20450;-79
2021/08/19 12:11:06;;;;;;;1999.90;999.90;;;22.20;99.90;;;;;;5002260;28;20877;-79